Home   Weather   USA   Hugo   Past weeks
Flag for USA

Past Weather in Hugo, Minnesota, USA — Yesterday and Last 2 Weeks

Currently: 57 °F. Clear. (Weather station: Minneapolis / Blaine, USA). See more current weather

Past Weather in Hugo — Graph

°F

Hugo Temperature Yesterday

Maximum temperature yesterday: 59 °F (at 5:48 pm)
Minimum temperature yesterday: 28 °F (at 3:55 am)
Average temperature yesterday: 42 °F

High & Low Weather Summary for the Past Weeks

  Temperature Humidity Pressure
High 72 °F (May 3, 3:51 pm) 100% (Apr 27, 2:35 am) 30.10 "Hg (Apr 27, 2:35 am)
Low 28 °F (May 7, 3:55 am) 16% (May 3, 5:45 pm) 29.38 "Hg (May 4, 5:15 am)
Average 48 °F 54% 29.87 "Hg
* Reported Apr 23 10:15 pm — May 8 10:35 pm, Hugo. Weather by CustomWeather, © 2026

Note: Actual official high and low records may vary slightly from our data, if they occured in-between our weather recording intervals... More about our weather records

Hugo Weather History for the Previous 24 Hours

Scroll right to see more
  Conditions Comfort    
Time   Temp Weather Wind   Humidity Barometer Visibility
10:35 pm
Fri, May 8
61 °F Clear. 10 mph 25% 29.62 "Hg 10 mi
10:15 pm 61 °F Clear. 9 mph 25% 29.62 "Hg 10 mi
9:45 pm 63 °F Clear. 17 mph 24% 29.61 "Hg 10 mi
8:45 pm 64 °F Clear. 10 mph 22% 29.57 "Hg 10 mi
7:45 pm 70 °F Scattered clouds. 10 mph 18% 29.56 "Hg 10 mi
6:47 pm 70 °F Scattered clouds. 14 mph 20% 29.55 "Hg 10 mi
5:47 pm 72 °F Scattered clouds. 12 mph 17% 29.56 "Hg 10 mi
4:45 pm 70 °F Scattered clouds. 9 mph 18% 29.58 "Hg 10 mi
3:47 pm 70 °F Scattered clouds. 12 mph 18% 29.60 "Hg 10 mi
2:46 pm 72 °F Scattered clouds. 13 mph 16% 29.63 "Hg 10 mi
1:47 pm 70 °F Scattered clouds. 14 mph 16% 29.65 "Hg 10 mi
12:46 pm 66 °F Sunny. 10 mph 19% 29.68 "Hg 10 mi
11:45 am 64 °F Scattered clouds. 10 mph 22% 29.70 "Hg 10 mi
10:48 am 63 °F Scattered clouds. 14 mph 25% 29.72 "Hg 10 mi
9:45 am 55 °F Sunny. 5 mph 33% 29.75 "Hg 10 mi
8:45 am 54 °F Sunny. No wind 33% 29.76 "Hg 10 mi
7:45 am 48 °F Sunny. No wind 46% 29.76 "Hg 10 mi
6:57 am 41 °F Sunny. No wind 57% 29.76 "Hg 10 mi
6:35 am 37 °F Sunny. No wind 65% 29.76 "Hg 10 mi
5:55 am 41 °F Sunny. No wind 53% 29.75 "Hg 10 mi
5:35 am 45 °F Clear. 6 mph 42% 29.75 "Hg 10 mi
5:15 am 45 °F Clear. 6 mph 46% 29.75 "Hg 10 mi
4:55 am 45 °F Clear. 7 mph 46% 29.75 "Hg 10 mi
4:35 am 45 °F Clear. 7 mph 46% 29.76 "Hg 10 mi
4:15 am 45 °F Clear. 6 mph 46% 29.76 "Hg 10 mi
3:55 am 46 °F Clear. 7 mph 43% 29.76 "Hg 10 mi
3:35 am 46 °F Clear. 7 mph 43% 29.76 "Hg 10 mi
3:15 am 46 °F Clear. 7 mph 43% 29.76 "Hg 10 mi
2:55 am 46 °F Clear. 7 mph 46% 29.76 "Hg 10 mi
2:35 am 46 °F Clear. 7 mph 46% 29.77 "Hg 10 mi
2:15 am 45 °F Clear. 6 mph 49% 29.77 "Hg 10 mi
1:55 am 43 °F Clear. 6 mph 57% 29.77 "Hg 10 mi
1:35 am 43 °F Clear. 5 mph 57% 29.77 "Hg 10 mi
1:15 am 43 °F Clear. 5 mph 57% 29.78 "Hg 10 mi
12:55 am 43 °F Clear. 3 mph 57% 29.78 "Hg 10 mi
12:35 am 43 °F Clear. 3 mph 57% 29.79 "Hg 10 mi
11:55 pm
Thu, May 7
45 °F Clear. 3 mph 49% 29.79 "Hg 10 mi
11:35 pm 45 °F Clear. 3 mph 49% 29.80 "Hg 10 mi
11:15 pm 43 °F Clear. 5 mph 57% 29.80 "Hg 10 mi
Weather by CustomWeather, © 2026

See weather overview